Terminal Aerodrome Forecast
Issued by NWS

Home | Current Version | Previous Version | Text Only | Print | Product List | Glossary On
Versions: 1 2 3 4 5 6 7 8 9 10 11 12 13 14 15 16
000
FTUS46 KPDT 270520
TAFBDN
TAF
KBDN 270520Z 2706/2806 33006KT P6SM FEW060
     FM271000 VRB03KT P6SM SCT030 SCT100
     FM271800 34005KT P6SM SCT070
     FM280400 VRB04KT P6SM SKC=

USA.gov is the U.S. government's official web portal to all federal, state and local government web resources and services.